sensor_id;sensor_type;location;lat;lon;timestamp;temperature;humidity
59282;DHT22;45054;52.062;10.010;2023-10-08T00:01:21;18.00;99.90
59282;DHT22;45054;52.062;10.010;2023-10-08T00:03:52;18.00;99.90
59282;DHT22;45054;52.062;10.010;2023-10-08T00:06:17;17.90;99.90
59282;DHT22;45054;52.062;10.010;2023-10-08T00:08:43;17.80;99.90
59282;DHT22;45054;52.062;10.010;2023-10-08T00:11:09;17.60;99.90
59282;DHT22;45054;52.062;10.010;2023-10-08T00:13:34;16.70;99.90
59282;DHT22;45054;52.062;10.010;2023-10-08T00:16:00;16.00;99.90
59282;DHT22;45054;52.062;10.010;2023-10-08T00:18:25;15.50;99.90
59282;DHT22;45054;52.062;10.010;2023-10-08T00:20:52;15.10;99.90
59282;DHT22;45054;52.062;10.010;2023-10-08T00:23:17;14.90;99.90
59282;DHT22;45054;52.062;10.010;2023-10-08T00:25:43;14.50;99.90
59282;DHT22;45054;52.062;10.010;2023-10-08T00:28:10;14.20;99.90
59282;DHT22;45054;52.062;10.010;2023-10-08T00:30:37;13.90;99.90
59282;DHT22;45054;52.062;10.010;2023-10-08T00:33:03;13.70;99.90
59282;DHT22;45054;52.062;10.010;2023-10-08T00:35:29;13.60;99.90
59282;DHT22;45054;52.062;10.010;2023-10-08T00:37:55;13.50;99.90
59282;DHT22;45054;52.062;10.010;2023-10-08T00:40:21;13.50;99.90
59282;DHT22;45054;52.062;10.010;2023-10-08T00:42:46;13.40;99.90
59282;DHT22;45054;52.062;10.010;2023-10-08T00:45:12;13.30;99.90
59282;DHT22;45054;52.062;10.010;2023-10-08T00:47:42;13.20;99.90
59282;DHT22;45054;52.062;10.010;2023-10-08T00:50:08;13.20;99.90
59282;DHT22;45054;52.062;10.010;2023-10-08T00:52:33;13.20;99.90
59282;DHT22;45054;52.062;10.010;2023-10-08T00:55:01;13.10;99.90
59282;DHT22;45054;52.062;10.010;2023-10-08T00:57:27;13.10;99.90
59282;DHT22;45054;52.062;10.010;2023-10-08T00:59:53;13.10;99.90
59282;DHT22;45054;52.062;10.010;2023-10-08T01:02:19;13.10;99.90
59282;DHT22;45054;52.062;10.010;2023-10-08T01:04:44;13.00;99.90
59282;DHT22;45054;52.062;10.010;2023-10-08T01:07:10;13.00;99.90
59282;DHT22;45054;52.062;10.010;2023-10-08T01:09:36;13.00;99.90
59282;DHT22;45054;52.062;10.010;2023-10-08T01:12:10;12.90;99.90
59282;DHT22;45054;52.062;10.010;2023-10-08T01:14:36;12.90;99.90
59282;DHT22;45054;52.062;10.010;2023-10-08T01:17:01;12.90;99.90
59282;DHT22;45054;52.062;10.010;2023-10-08T01:19:27;12.90;99.90
59282;DHT22;45054;52.062;10.010;2023-10-08T01:21:52;12.80;99.90
59282;DHT22;45054;52.062;10.010;2023-10-08T01:24:22;12.80;99.90
59282;DHT22;45054;52.062;10.010;2023-10-08T01:26:47;12.90;99.90
59282;DHT22;45054;52.062;10.010;2023-10-08T01:29:13;12.90;99.90
59282;DHT22;45054;52.062;10.010;2023-10-08T01:31:38;13.00;99.90
59282;DHT22;45054;52.062;10.010;2023-10-08T01:34:03;12.90;99.90
59282;DHT22;45054;52.062;10.010;2023-10-08T01:36:30;12.80;99.90
59282;DHT22;45054;52.062;10.010;2023-10-08T01:38:55;12.70;99.90
59282;DHT22;45054;52.062;10.010;2023-10-08T01:41:22;12.70;99.90
59282;DHT22;45054;52.062;10.010;2023-10-08T01:43:49;12.60;99.90
59282;DHT22;45054;52.062;10.010;2023-10-08T01:46:14;12.60;99.90
59282;DHT22;45054;52.062;10.010;2023-10-08T01:48:40;12.50;99.90
59282;DHT22;45054;52.062;10.010;2023-10-08T01:51:05;12.60;99.90
59282;DHT22;45054;52.062;10.010;2023-10-08T01:53:31;12.50;99.90
59282;DHT22;45054;52.062;10.010;2023-10-08T01:55:56;12.40;99.90
59282;DHT22;45054;52.062;10.010;2023-10-08T01:58:23;12.20;99.90
59282;DHT22;45054;52.062;10.010;2023-10-08T02:00:49;12.20;99.90
59282;DHT22;45054;52.062;10.010;2023-10-08T02:03:15;11.90;99.90
59282;DHT22;45054;52.062;10.010;2023-10-08T02:05:41;11.80;99.90
59282;DHT22;45054;52.062;10.010;2023-10-08T02:08:06;11.50;99.90
59282;DHT22;45054;52.062;10.010;2023-10-08T02:10:32;11.20;99.90
59282;DHT22;45054;52.062;10.010;2023-10-08T02:12:57;11.10;99.90
59282;DHT22;45054;52.062;10.010;2023-10-08T02:15:24;11.00;99.90
59282;DHT22;45054;52.062;10.010;2023-10-08T02:17:49;10.90;99.90
59282;DHT22;45054;52.062;10.010;2023-10-08T02:20:15;11.00;99.90
59282;DHT22;45054;52.062;10.010;2023-10-08T02:22:40;11.00;99.90
59282;DHT22;45054;52.062;10.010;2023-10-08T02:25:06;11.10;99.90
59282;DHT22;45054;52.062;10.010;2023-10-08T02:27:31;11.20;99.90
59282;DHT22;45054;52.062;10.010;2023-10-08T02:29:57;11.10;99.90
59282;DHT22;45054;52.062;10.010;2023-10-08T02:32:25;11.20;99.90
59282;DHT22;45054;52.062;10.010;2023-10-08T02:34:52;11.30;99.90
59282;DHT22;45054;52.062;10.010;2023-10-08T02:37:17;11.40;99.90
59282;DHT22;45054;52.062;10.010;2023-10-08T02:39:43;11.40;99.90
59282;DHT22;45054;52.062;10.010;2023-10-08T02:42:08;11.40;99.90
59282;DHT22;45054;52.062;10.010;2023-10-08T02:44:34;11.50;99.90
59282;DHT22;45054;52.062;10.010;2023-10-08T02:47:00;11.50;99.90
59282;DHT22;45054;52.062;10.010;2023-10-08T02:49:26;11.50;99.90
59282;DHT22;45054;52.062;10.010;2023-10-08T02:51:53;11.50;99.90
59282;DHT22;45054;52.062;10.010;2023-10-08T02:54:19;11.50;99.90
59282;DHT22;45054;52.062;10.010;2023-10-08T02:56:44;11.60;99.90
59282;DHT22;45054;52.062;10.010;2023-10-08T02:59:10;11.70;99.90
59282;DHT22;45054;52.062;10.010;2023-10-08T03:01:36;11.80;99.90
59282;DHT22;45054;52.062;10.010;2023-10-08T03:04:01;11.80;99.90
59282;DHT22;45054;52.062;10.010;2023-10-08T03:06:28;11.80;99.90
59282;DHT22;45054;52.062;10.010;2023-10-08T03:08:53;11.80;99.90
59282;DHT22;45054;52.062;10.010;2023-10-08T03:11:19;11.80;99.90
59282;DHT22;45054;52.062;10.010;2023-10-08T03:13:45;11.90;99.90
59282;DHT22;45054;52.062;10.010;2023-10-08T03:16:11;12.00;99.90
59282;DHT22;45054;52.062;10.010;2023-10-08T03:18:36;12.00;99.90
59282;DHT22;45054;52.062;10.010;2023-10-08T03:21:02;12.00;99.90
59282;DHT22;45054;52.062;10.010;2023-10-08T03:23:31;12.00;99.90
59282;DHT22;45054;52.062;10.010;2023-10-08T03:25:58;11.90;99.90
59282;DHT22;45054;52.062;10.010;2023-10-08T03:28:24;11.70;99.90
59282;DHT22;45054;52.062;10.010;2023-10-08T03:30:49;11.70;99.90
59282;DHT22;45054;52.062;10.010;2023-10-08T03:33:16;11.70;99.90
59282;DHT22;45054;52.062;10.010;2023-10-08T03:35:41;11.70;99.90
59282;DHT22;45054;52.062;10.010;2023-10-08T03:38:07;11.70;99.90
59282;DHT22;45054;52.062;10.010;2023-10-08T03:40:33;11.60;99.90
59282;DHT22;45054;52.062;10.010;2023-10-08T03:42:59;11.50;99.90
59282;DHT22;45054;52.062;10.010;2023-10-08T03:45:24;11.50;99.90
59282;DHT22;45054;52.062;10.010;2023-10-08T03:47:50;11.50;99.90
59282;DHT22;45054;52.062;10.010;2023-10-08T03:50:15;11.50;99.90
59282;DHT22;45054;52.062;10.010;2023-10-08T03:52:41;11.60;99.90
59282;DHT22;45054;52.062;10.010;2023-10-08T03:55:06;11.60;99.90
59282;DHT22;45054;52.062;10.010;2023-10-08T03:57:33;11.70;99.90
59282;DHT22;45054;52.062;10.010;2023-10-08T03:59:59;11.60;99.90
59282;DHT22;45054;52.062;10.010;2023-10-08T04:02:24;11.70;99.90
59282;DHT22;45054;52.062;10.010;2023-10-08T04:04:50;11.70;99.90
59282;DHT22;45054;52.062;10.010;2023-10-08T04:07:15;11.70;99.90
59282;DHT22;45054;52.062;10.010;2023-10-08T04:09:41;11.80;99.90
59282;DHT22;45054;52.062;10.010;2023-10-08T04:12:06;11.80;99.90
59282;DHT22;45054;52.062;10.010;2023-10-08T04:14:33;11.80;99.90
59282;DHT22;45054;52.062;10.010;2023-10-08T04:16:59;11.80;99.90
59282;DHT22;45054;52.062;10.010;2023-10-08T04:19:24;11.80;99.90
59282;DHT22;45054;52.062;10.010;2023-10-08T04:21:50;11.70;99.90
59282;DHT22;45054;52.062;10.010;2023-10-08T04:24:15;11.80;99.90
59282;DHT22;45054;52.062;10.010;2023-10-08T04:26:40;11.70;99.90
59282;DHT22;45054;52.062;10.010;2023-10-08T04:29:06;11.70;99.90
59282;DHT22;45054;52.062;10.010;2023-10-08T04:31:33;11.70;99.90
59282;DHT22;45054;52.062;10.010;2023-10-08T04:33:59;11.60;99.90
59282;DHT22;45054;52.062;10.010;2023-10-08T04:36:24;11.50;99.90
59282;DHT22;45054;52.062;10.010;2023-10-08T04:38:50;11.50;99.90
59282;DHT22;45054;52.062;10.010;2023-10-08T04:41:15;11.50;99.90
59282;DHT22;45054;52.062;10.010;2023-10-08T04:43:40;11.50;99.90
59282;DHT22;45054;52.062;10.010;2023-10-08T04:46:06;11.50;99.90
59282;DHT22;45054;52.062;10.010;2023-10-08T04:48:33;11.50;99.90
59282;DHT22;45054;52.062;10.010;2023-10-08T04:50:58;11.50;99.90
59282;DHT22;45054;52.062;10.010;2023-10-08T04:53:25;11.40;99.90
59282;DHT22;45054;52.062;10.010;2023-10-08T04:55:50;11.40;99.90
59282;DHT22;45054;52.062;10.010;2023-10-08T04:58:16;11.40;99.90
59282;DHT22;45054;52.062;10.010;2023-10-08T05:00:41;11.40;99.90
59282;DHT22;45054;52.062;10.010;2023-10-08T05:03:07;11.40;99.90
59282;DHT22;45054;52.062;10.010;2023-10-08T05:05:33;11.40;99.90
59282;DHT22;45054;52.062;10.010;2023-10-08T05:07:59;11.40;99.90
59282;DHT22;45054;52.062;10.010;2023-10-08T05:10:24;11.40;99.90
59282;DHT22;45054;52.062;10.010;2023-10-08T05:12:50;11.50;99.90
59282;DHT22;45054;52.062;10.010;2023-10-08T05:15:15;11.50;99.90
59282;DHT22;45054;52.062;10.010;2023-10-08T05:17:41;11.50;99.90
59282;DHT22;45054;52.062;10.010;2023-10-08T05:20:07;11.60;99.90
59282;DHT22;45054;52.062;10.010;2023-10-08T05:22:33;11.60;99.90
59282;DHT22;45054;52.062;10.010;2023-10-08T05:24:59;11.60;99.90
59282;DHT22;45054;52.062;10.010;2023-10-08T05:27:25;11.60;99.90
59282;DHT22;45054;52.062;10.010;2023-10-08T05:29:50;11.60;99.90
59282;DHT22;45054;52.062;10.010;2023-10-08T05:32:16;11.60;99.90
59282;DHT22;45054;52.062;10.010;2023-10-08T05:34:41;11.50;99.90
59282;DHT22;45054;52.062;10.010;2023-10-08T05:37:07;11.50;99.90
59282;DHT22;45054;52.062;10.010;2023-10-08T05:39:33;11.50;99.90
59282;DHT22;45054;52.062;10.010;2023-10-08T05:41:59;11.50;99.90
59282;DHT22;45054;52.062;10.010;2023-10-08T05:44:24;11.50;99.90
59282;DHT22;45054;52.062;10.010;2023-10-08T05:46:50;11.50;99.90
59282;DHT22;45054;52.062;10.010;2023-10-08T05:49:15;11.50;99.90
59282;DHT22;45054;52.062;10.010;2023-10-08T05:51:41;11.60;99.90
59282;DHT22;45054;52.062;10.010;2023-10-08T05:54:07;11.60;99.90
59282;DHT22;45054;52.062;10.010;2023-10-08T05:56:33;11.60;99.90
59282;DHT22;45054;52.062;10.010;2023-10-08T05:58:59;11.60;99.90
59282;DHT22;45054;52.062;10.010;2023-10-08T06:01:24;11.70;99.90
59282;DHT22;45054;52.062;10.010;2023-10-08T06:03:50;11.60;99.90
59282;DHT22;45054;52.062;10.010;2023-10-08T06:06:15;11.70;99.90
59282;DHT22;45054;52.062;10.010;2023-10-08T06:08:41;11.60;99.90
59282;DHT22;45054;52.062;10.010;2023-10-08T06:11:06;11.60;99.90
59282;DHT22;45054;52.062;10.010;2023-10-08T06:13:33;11.70;99.90
59282;DHT22;45054;52.062;10.010;2023-10-08T06:15:59;11.70;99.90
59282;DHT22;45054;52.062;10.010;2023-10-08T06:18:24;11.70;99.90
59282;DHT22;45054;52.062;10.010;2023-10-08T06:20:50;11.70;99.90
59282;DHT22;45054;52.062;10.010;2023-10-08T06:23:16;11.70;99.90
59282;DHT22;45054;52.062;10.010;2023-10-08T06:25:42;11.70;99.90
59282;DHT22;45054;52.062;10.010;2023-10-08T06:28:08;11.70;99.90
59282;DHT22;45054;52.062;10.010;2023-10-08T06:30:34;11.70;99.90
59282;DHT22;45054;52.062;10.010;2023-10-08T06:33:00;11.60;99.90
59282;DHT22;45054;52.062;10.010;2023-10-08T06:35:25;11.60;99.90
59282;DHT22;45054;52.062;10.010;2023-10-08T06:37:51;11.60;99.90
59282;DHT22;45054;52.062;10.010;2023-10-08T06:40:16;11.60;99.90
59282;DHT22;45054;52.062;10.010;2023-10-08T06:42:42;11.60;99.90
59282;DHT22;45054;52.062;10.010;2023-10-08T06:45:07;11.70;99.90
59282;DHT22;45054;52.062;10.010;2023-10-08T06:47:34;11.60;99.90
59282;DHT22;45054;52.062;10.010;2023-10-08T06:50:00;11.70;99.90
59282;DHT22;45054;52.062;10.010;2023-10-08T06:52:25;11.60;99.90
59282;DHT22;45054;52.062;10.010;2023-10-08T06:54:51;11.70;99.90
59282;DHT22;45054;52.062;10.010;2023-10-08T06:57:16;11.70;99.90
59282;DHT22;45054;52.062;10.010;2023-10-08T06:59:42;11.80;99.90
59282;DHT22;45054;52.062;10.010;2023-10-08T07:02:07;11.80;99.90
59282;DHT22;45054;52.062;10.010;2023-10-08T07:04:34;11.80;99.90
59282;DHT22;45054;52.062;10.010;2023-10-08T07:06:59;11.90;99.90
59282;DHT22;45054;52.062;10.010;2023-10-08T07:09:25;11.90;99.90
59282;DHT22;45054;52.062;10.010;2023-10-08T07:11:50;12.00;99.90
59282;DHT22;45054;52.062;10.010;2023-10-08T07:14:16;12.00;99.90
59282;DHT22;45054;52.062;10.010;2023-10-08T07:16:41;12.00;99.90
59282;DHT22;45054;52.062;10.010;2023-10-08T07:19:07;12.00;99.90
59282;DHT22;45054;52.062;10.010;2023-10-08T07:21:33;12.00;99.90
59282;DHT22;45054;52.062;10.010;2023-10-08T07:23:59;12.10;99.90
59282;DHT22;45054;52.062;10.010;2023-10-08T07:26:25;12.20;99.90
59282;DHT22;45054;52.062;10.010;2023-10-08T07:28:50;12.20;99.90
59282;DHT22;45054;52.062;10.010;2023-10-08T07:31:16;12.30;99.90
59282;DHT22;45054;52.062;10.010;2023-10-08T07:33:42;12.20;99.90
59282;DHT22;45054;52.062;10.010;2023-10-08T07:36:07;12.20;99.90
59282;DHT22;45054;52.062;10.010;2023-10-08T07:38:34;12.20;99.90
59282;DHT22;45054;52.062;10.010;2023-10-08T07:41:00;12.20;99.90
59282;DHT22;45054;52.062;10.010;2023-10-08T07:43:25;12.20;99.90
59282;DHT22;45054;52.062;10.010;2023-10-08T07:45:51;12.30;99.90
59282;DHT22;45054;52.062;10.010;2023-10-08T07:48:16;12.40;99.90
59282;DHT22;45054;52.062;10.010;2023-10-08T07:50:42;12.40;99.90
59282;DHT22;45054;52.062;10.010;2023-10-08T07:53:08;12.50;99.90
59282;DHT22;45054;52.062;10.010;2023-10-08T07:55:35;12.50;99.90
59282;DHT22;45054;52.062;10.010;2023-10-08T07:58:01;12.50;99.90
59282;DHT22;45054;52.062;10.010;2023-10-08T08:00:26;12.50;99.90
59282;DHT22;45054;52.062;10.010;2023-10-08T08:02:52;12.50;99.90
59282;DHT22;45054;52.062;10.010;2023-10-08T08:05:17;12.60;99.90
59282;DHT22;45054;52.062;10.010;2023-10-08T08:07:43;12.60;99.90
59282;DHT22;45054;52.062;10.010;2023-10-08T08:10:08;12.60;99.90
59282;DHT22;45054;52.062;10.010;2023-10-08T08:12:35;12.70;99.90
59282;DHT22;45054;52.062;10.010;2023-10-08T08:15:01;12.80;99.90
59282;DHT22;45054;52.062;10.010;2023-10-08T08:17:26;12.90;99.90
59282;DHT22;45054;52.062;10.010;2023-10-08T08:19:52;13.00;99.90
59282;DHT22;45054;52.062;10.010;2023-10-08T08:22:18;13.00;99.90
59282;DHT22;45054;52.062;10.010;2023-10-08T08:24:43;13.00;99.90
59282;DHT22;45054;52.062;10.010;2023-10-08T08:27:09;13.00;99.90
59282;DHT22;45054;52.062;10.010;2023-10-08T08:29:36;13.00;99.90
59282;DHT22;45054;52.062;10.010;2023-10-08T08:32:01;13.00;99.90
59282;DHT22;45054;52.062;10.010;2023-10-08T08:34:27;13.10;99.90
59282;DHT22;45054;52.062;10.010;2023-10-08T08:36:52;13.10;99.90
59282;DHT22;45054;52.062;10.010;2023-10-08T08:39:18;13.10;99.90
59282;DHT22;45054;52.062;10.010;2023-10-08T08:41:43;13.10;99.90
59282;DHT22;45054;52.062;10.010;2023-10-08T08:44:09;13.00;99.90
59282;DHT22;45054;52.062;10.010;2023-10-08T08:46:36;12.80;99.90
59282;DHT22;45054;52.062;10.010;2023-10-08T08:49:03;12.80;99.90
59282;DHT22;45054;52.062;10.010;2023-10-08T08:51:29;12.90;99.90
59282;DHT22;45054;52.062;10.010;2023-10-08T08:53:55;12.90;99.90
59282;DHT22;45054;52.062;10.010;2023-10-08T08:56:20;13.00;99.90
59282;DHT22;45054;52.062;10.010;2023-10-08T08:58:46;13.00;99.90
59282;DHT22;45054;52.062;10.010;2023-10-08T09:01:12;13.00;99.90
59282;DHT22;45054;52.062;10.010;2023-10-08T09:03:39;13.00;99.90
59282;DHT22;45054;52.062;10.010;2023-10-08T09:06:05;13.20;99.90
59282;DHT22;45054;52.062;10.010;2023-10-08T09:08:33;13.10;99.90
59282;DHT22;45054;52.062;10.010;2023-10-08T09:10:59;13.20;99.90
59282;DHT22;45054;52.062;10.010;2023-10-08T09:13:24;13.20;99.90
59282;DHT22;45054;52.062;10.010;2023-10-08T09:15:49;13.20;99.90
59282;DHT22;45054;52.062;10.010;2023-10-08T09:18:15;13.20;99.90
59282;DHT22;45054;52.062;10.010;2023-10-08T09:20:42;13.30;99.90
59282;DHT22;45054;52.062;10.010;2023-10-08T09:23:07;13.20;99.90
59282;DHT22;45054;52.062;10.010;2023-10-08T09:25:33;13.30;99.90
59282;DHT22;45054;52.062;10.010;2023-10-08T09:27:59;13.30;99.90
59282;DHT22;45054;52.062;10.010;2023-10-08T09:30:25;13.30;99.90
59282;DHT22;45054;52.062;10.010;2023-10-08T09:32:50;13.20;99.90
59282;DHT22;45054;52.062;10.010;2023-10-08T09:35:15;13.10;99.90
59282;DHT22;45054;52.062;10.010;2023-10-08T09:37:43;13.30;99.90
59282;DHT22;45054;52.062;10.010;2023-10-08T09:40:09;13.50;99.90
59282;DHT22;45054;52.062;10.010;2023-10-08T09:42:36;13.50;99.90
59282;DHT22;45054;52.062;10.010;2023-10-08T09:45:02;13.40;99.90
59282;DHT22;45054;52.062;10.010;2023-10-08T09:47:28;13.40;99.90
59282;DHT22;45054;52.062;10.010;2023-10-08T09:49:56;13.50;99.90
59282;DHT22;45054;52.062;10.010;2023-10-08T09:52:23;13.60;99.90
59282;DHT22;45054;52.062;10.010;2023-10-08T09:54:52;13.60;99.90
59282;DHT22;45054;52.062;10.010;2023-10-08T09:57:18;13.70;99.90
59282;DHT22;45054;52.062;10.010;2023-10-08T09:59:44;13.70;99.90
59282;DHT22;45054;52.062;10.010;2023-10-08T10:02:10;13.70;99.90
59282;DHT22;45054;52.062;10.010;2023-10-08T10:04:35;13.80;99.90
59282;DHT22;45054;52.062;10.010;2023-10-08T10:07:07;13.90;99.90
59282;DHT22;45054;52.062;10.010;2023-10-08T10:09:33;14.00;99.90
59282;DHT22;45054;52.062;10.010;2023-10-08T10:12:02;14.00;99.90
59282;DHT22;45054;52.062;10.010;2023-10-08T10:14:29;14.10;99.90
59282;DHT22;45054;52.062;10.010;2023-10-08T10:17:09;14.10;99.90
59282;DHT22;45054;52.062;10.010;2023-10-08T10:19:35;14.20;99.90
59282;DHT22;45054;52.062;10.010;2023-10-08T10:22:01;14.20;99.90
59282;DHT22;45054;52.062;10.010;2023-10-08T10:24:28;14.40;99.90
59282;DHT22;45054;52.062;10.010;2023-10-08T10:27:10;14.40;99.90
59282;DHT22;45054;52.062;10.010;2023-10-08T10:29:36;14.40;99.90
59282;DHT22;45054;52.062;10.010;2023-10-08T10:32:01;14.40;99.90
59282;DHT22;45054;52.062;10.010;2023-10-08T10:34:27;14.40;99.90
59282;DHT22;45054;52.062;10.010;2023-10-08T10:36:53;14.30;99.90
59282;DHT22;45054;52.062;10.010;2023-10-08T10:39:18;14.30;99.90
59282;DHT22;45054;52.062;10.010;2023-10-08T10:41:45;14.10;99.90
59282;DHT22;45054;52.062;10.010;2023-10-08T10:44:12;14.10;99.90
59282;DHT22;45054;52.062;10.010;2023-10-08T10:46:38;14.10;99.90
59282;DHT22;45054;52.062;10.010;2023-10-08T10:49:03;13.90;99.90
59282;DHT22;45054;52.062;10.010;2023-10-08T10:51:29;14.00;99.90
59282;DHT22;45054;52.062;10.010;2023-10-08T10:53:54;14.10;99.90
59282;DHT22;45054;52.062;10.010;2023-10-08T10:56:22;14.30;99.90
59282;DHT22;45054;52.062;10.010;2023-10-08T10:58:48;14.40;99.90
59282;DHT22;45054;52.062;10.010;2023-10-08T11:01:15;14.50;99.90
59282;DHT22;45054;52.062;10.010;2023-10-08T11:03:40;14.50;99.90
59282;DHT22;45054;52.062;10.010;2023-10-08T11:06:06;14.60;99.90
59282;DHT22;45054;52.062;10.010;2023-10-08T11:08:31;14.70;99.90
59282;DHT22;45054;52.062;10.010;2023-10-08T11:10:57;14.60;99.90
59282;DHT22;45054;52.062;10.010;2023-10-08T11:13:23;14.50;99.90
59282;DHT22;45054;52.062;10.010;2023-10-08T11:15:50;14.60;99.90
59282;DHT22;45054;52.062;10.010;2023-10-08T11:18:17;14.60;99.90
59282;DHT22;45054;52.062;10.010;2023-10-08T11:20:43;14.50;99.90
59282;DHT22;45054;52.062;10.010;2023-10-08T11:23:09;14.50;99.90
59282;DHT22;45054;52.062;10.010;2023-10-08T11:25:34;14.50;99.90
59282;DHT22;45054;52.062;10.010;2023-10-08T11:28:00;14.50;99.90
59282;DHT22;45054;52.062;10.010;2023-10-08T11:30:25;14.50;99.90
59282;DHT22;45054;52.062;10.010;2023-10-08T11:32:51;14.60;99.90
59282;DHT22;45054;52.062;10.010;2023-10-08T11:35:18;14.50;99.90
59282;DHT22;45054;52.062;10.010;2023-10-08T11:37:46;14.70;99.90
59282;DHT22;45054;52.062;10.010;2023-10-08T11:40:21;14.70;99.90
59282;DHT22;45054;52.062;10.010;2023-10-08T11:42:46;14.70;99.90
59282;DHT22;45054;52.062;10.010;2023-10-08T11:45:12;14.80;99.90
59282;DHT22;45054;52.062;10.010;2023-10-08T11:47:37;15.00;99.90
59282;DHT22;45054;52.062;10.010;2023-10-08T11:50:03;15.10;99.90
59282;DHT22;45054;52.062;10.010;2023-10-08T11:52:30;15.20;99.90
59282;DHT22;45054;52.062;10.010;2023-10-08T11:54:55;15.20;99.90
59282;DHT22;45054;52.062;10.010;2023-10-08T11:57:21;15.00;99.90
59282;DHT22;45054;52.062;10.010;2023-10-08T11:59:46;15.10;99.90
59282;DHT22;45054;52.062;10.010;2023-10-08T12:02:12;15.10;99.90
59282;DHT22;45054;52.062;10.010;2023-10-08T12:04:39;15.10;99.90
59282;DHT22;45054;52.062;10.010;2023-10-08T12:07:04;15.30;99.90
59282;DHT22;45054;52.062;10.010;2023-10-08T12:09:31;15.40;99.90
59282;DHT22;45054;52.062;10.010;2023-10-08T12:11:57;15.50;99.90
59282;DHT22;45054;52.062;10.010;2023-10-08T12:14:22;15.50;99.90
59282;DHT22;45054;52.062;10.010;2023-10-08T12:16:47;15.50;99.90
59282;DHT22;45054;52.062;10.010;2023-10-08T12:19:13;15.60;99.90
59282;DHT22;45054;52.062;10.010;2023-10-08T12:21:38;15.70;99.90
59282;DHT22;45054;52.062;10.010;2023-10-08T12:24:04;15.70;99.90
59282;DHT22;45054;52.062;10.010;2023-10-08T12:26:31;15.70;99.90
59282;DHT22;45054;52.062;10.010;2023-10-08T12:28:56;15.70;99.90
59282;DHT22;45054;52.062;10.010;2023-10-08T12:31:22;15.80;99.90
59282;DHT22;45054;52.062;10.010;2023-10-08T12:33:47;15.80;99.90
59282;DHT22;45054;52.062;10.010;2023-10-08T12:36:13;15.70;99.90
59282;DHT22;45054;52.062;10.010;2023-10-08T12:38:39;15.60;99.90
59282;DHT22;45054;52.062;10.010;2023-10-08T12:41:04;15.60;99.90
59282;DHT22;45054;52.062;10.010;2023-10-08T12:43:31;15.40;99.90
59282;DHT22;45054;52.062;10.010;2023-10-08T12:45:57;15.50;99.90
59282;DHT22;45054;52.062;10.010;2023-10-08T12:48:23;15.50;99.90
59282;DHT22;45054;52.062;10.010;2023-10-08T12:50:49;15.60;99.90
59282;DHT22;45054;52.062;10.010;2023-10-08T12:53:14;15.60;99.90
59282;DHT22;45054;52.062;10.010;2023-10-08T12:55:40;15.60;99.90
59282;DHT22;45054;52.062;10.010;2023-10-08T12:58:05;15.70;99.90
59282;DHT22;45054;52.062;10.010;2023-10-08T13:00:32;15.90;99.90
59282;DHT22;45054;52.062;10.010;2023-10-08T13:02:58;16.00;99.90
59282;DHT22;45054;52.062;10.010;2023-10-08T13:05:23;15.90;99.90
59282;DHT22;45054;52.062;10.010;2023-10-08T13:07:49;15.90;99.90
59282;DHT22;45054;52.062;10.010;2023-10-08T13:10:14;15.90;99.90
59282;DHT22;45054;52.062;10.010;2023-10-08T13:12:40;15.90;99.90
59282;DHT22;45054;52.062;10.010;2023-10-08T13:15:06;16.10;99.90
59282;DHT22;45054;52.062;10.010;2023-10-08T13:17:32;16.10;99.90
59282;DHT22;45054;52.062;10.010;2023-10-08T13:19:58;16.40;99.90
59282;DHT22;45054;52.062;10.010;2023-10-08T13:22:23;16.50;99.90
59282;DHT22;45054;52.062;10.010;2023-10-08T13:24:49;16.30;99.90
59282;DHT22;45054;52.062;10.010;2023-10-08T13:27:15;16.00;99.90
59282;DHT22;45054;52.062;10.010;2023-10-08T13:29:40;15.60;99.90
59282;DHT22;45054;52.062;10.010;2023-10-08T13:32:06;15.50;99.90
59282;DHT22;45054;52.062;10.010;2023-10-08T13:34:32;15.50;99.90
59282;DHT22;45054;52.062;10.010;2023-10-08T13:36:58;15.60;99.90
59282;DHT22;45054;52.062;10.010;2023-10-08T13:39:23;15.70;99.90
59282;DHT22;45054;52.062;10.010;2023-10-08T13:41:49;15.80;99.90
59282;DHT22;45054;52.062;10.010;2023-10-08T13:44:14;15.80;99.90
59282;DHT22;45054;52.062;10.010;2023-10-08T13:46:40;15.80;99.90
59282;DHT22;45054;52.062;10.010;2023-10-08T13:49:05;15.80;99.90
59282;DHT22;45054;52.062;10.010;2023-10-08T13:51:32;16.00;99.90
59282;DHT22;45054;52.062;10.010;2023-10-08T13:53:58;15.90;99.90
59282;DHT22;45054;52.062;10.010;2023-10-08T13:56:23;15.90;99.90
59282;DHT22;45054;52.062;10.010;2023-10-08T13:58:48;15.90;99.90
59282;DHT22;45054;52.062;10.010;2023-10-08T14:01:14;15.90;99.90
59282;DHT22;45054;52.062;10.010;2023-10-08T14:03:39;16.00;99.90
59282;DHT22;45054;52.062;10.010;2023-10-08T14:06:05;15.90;99.90
59282;DHT22;45054;52.062;10.010;2023-10-08T14:08:32;16.00;99.90
59282;DHT22;45054;52.062;10.010;2023-10-08T14:10:57;15.90;99.90
59282;DHT22;45054;52.062;10.010;2023-10-08T14:13:23;15.90;99.90
59282;DHT22;45054;52.062;10.010;2023-10-08T14:15:48;15.80;99.90
59282;DHT22;45054;52.062;10.010;2023-10-08T14:18:14;15.70;99.90
59282;DHT22;45054;52.062;10.010;2023-10-08T14:20:39;15.70;99.90
59282;DHT22;45054;52.062;10.010;2023-10-08T14:23:05;15.80;99.90
59282;DHT22;45054;52.062;10.010;2023-10-08T14:25:32;15.80;99.90
59282;DHT22;45054;52.062;10.010;2023-10-08T14:27:57;15.80;99.90
59282;DHT22;45054;52.062;10.010;2023-10-08T14:30:23;15.80;99.90
59282;DHT22;45054;52.062;10.010;2023-10-08T14:32:48;15.80;99.90
59282;DHT22;45054;52.062;10.010;2023-10-08T14:35:14;15.80;99.90
59282;DHT22;45054;52.062;10.010;2023-10-08T14:37:39;15.90;99.90
59282;DHT22;45054;52.062;10.010;2023-10-08T14:40:05;15.80;99.90
59282;DHT22;45054;52.062;10.010;2023-10-08T14:42:32;15.80;99.90
59282;DHT22;45054;52.062;10.010;2023-10-08T14:44:57;15.90;99.90
59282;DHT22;45054;52.062;10.010;2023-10-08T14:47:23;16.00;99.90
59282;DHT22;45054;52.062;10.010;2023-10-08T14:49:48;16.10;99.90
59282;DHT22;45054;52.062;10.010;2023-10-08T14:52:14;16.20;99.90
59282;DHT22;45054;52.062;10.010;2023-10-08T14:54:39;16.30;99.90
59282;DHT22;45054;52.062;10.010;2023-10-08T14:57:05;16.50;99.90
59282;DHT22;45054;52.062;10.010;2023-10-08T14:59:32;16.60;99.90
59282;DHT22;45054;52.062;10.010;2023-10-08T15:01:57;16.30;99.90
59282;DHT22;45054;52.062;10.010;2023-10-08T15:04:23;16.50;99.90
59282;DHT22;45054;52.062;10.010;2023-10-08T15:06:48;16.50;99.90